Аэропорт
Алматы (UAAA)

 UAAA / ALA
ЗЦ Центральная Азия
Алматы (UAAA)
Алматы (UAAA)
 43.35210, 77.04050  / 2234 ft

 UAAA 250800Z 03003MPS 350V060 5000 BR BKN100 10/06 Q1020 R05L/CLRD65 R05R/1///60 NOSIG
 TAF UAAA 242300Z 2500/2524 20002G07MPS 1700 BR BKN011 BKN030CB TX08/2509Z TN01/2501Z TEMPO 2500/2504 02003MPS 0600 FG BKN004 BECMG 2506/2507 06002G07MPS 5000 BECMG 2513/2514 16002G07MPS 3100 TEMPO 2518/2524 20003MPS 0500 FG BKN005
UAAA charts
показать схемы
Название сценария Тип сценария Flight Simulator 9 Flight Simulator X Prepar3D v2 Prepar3D v3 Prepar3D v4 xPlane
Recommended scenery for FS9 бесплатный
Recommended scenery for FSX бесплатный


2020 © VATRUS division (Privacy Policy)